Terminal Aerodrome Forecast
Issued by NWS Wilmington, OH

Current Version | Previous Version | Text Only | Print | Product List | Glossary Off
Versions: 1 2 3 4 5 6 7 8 9 10 11 12 13 14 15 16 17 18 19 20 21 22 23 24 25 26 27 28

000
FTUS41 KILN 270800 AAA
TAFCVG
TAF AMD
KCVG 270853Z 2709/2812 20008KT P6SM SCT005
      TEMPO 2709/2710 BKN006
     FM271300 22010KT P6SM FEW015
     FM272000 23012KT P6SM VCTS BKN035CB
     FM280000 24012KT P6SM FEW040 BKN100
     FM280500 24004KT P6SM FEW050
     FM280900 00000KT 5SM BR FEW100=

USA.gov is the U.S. government's official web portal to all federal, state and local government web resources and services.